Eastmain, Canada
Current Conditions -  °F | °C
As of 11:10 AM on Saturday 20 Dec 2014 (Local Time) from CYGL Reporting Station
Broken Clouds Broken Clouds  
Wind Chill: -16°   Ceiling: 500
Heat Index: -2°   Visibility: 15mi
Dew Point: -8°   Wind: 7mph
Humidity: 78%   Direction: 220°SW
Pressure: 30.29"   Gusts: NA
Location:  52.23°N, 78.52°W
Report Text: CYGL 201610Z 22006KT 15SM BKN005 M19/M22 A3029 RMK ST6 SLP280
Loading
Personal Weather Stations






























Interactive Weather Map New forecast layout! Learn more

10-Day Weather Forecast

Advertisements
Track Severe Weather on mobile